createdAt,value
2022-08-14T00:02:46.873Z,70.20
2022-08-14T00:05:58.247Z,71.20
2022-08-14T00:09:03.764Z,72.20
2022-08-14T00:12:23.739Z,71.40
2022-08-14T00:15:43.554Z,71.70
2022-08-14T00:19:06.185Z,71.90
2022-08-14T00:22:12.289Z,71.50
2022-08-14T00:25:42.385Z,71.60
2022-08-14T00:28:47.738Z,71.70
2022-08-14T00:31:55.997Z,71.90
2022-08-14T00:35:01.405Z,71.60
2022-08-14T00:38:07.021Z,71.80
2022-08-14T00:41:11.789Z,71.70
2022-08-14T00:44:26.597Z,71.70
2022-08-14T00:47:43.066Z,71.90
2022-08-14T00:50:48.580Z,72.50
2022-08-14T00:53:51.961Z,71.60
2022-08-14T00:56:56.179Z,71.60
2022-08-14T01:00:02.229Z,72.90
2022-08-14T01:03:08.153Z,71.70
2022-08-14T01:06:17.000Z,71.80
2022-08-14T01:09:23.673Z,72.20
2022-08-14T01:12:29.756Z,72.00
2022-08-14T01:15:57.821Z,72.00
2022-08-14T01:19:15.921Z,73.20
2022-08-14T01:22:20.853Z,72.40
2022-08-14T01:25:30.033Z,71.50
2022-08-14T01:28:56.607Z,71.80
2022-08-14T01:32:01.910Z,72.10
2022-08-14T01:35:19.193Z,72.20
2022-08-14T01:38:37.327Z,72.30
2022-08-14T01:41:42.398Z,72.50
2022-08-14T01:44:50.598Z,72.40
2022-08-14T01:48:03.491Z,72.70
2022-08-14T01:51:19.021Z,72.90
2022-08-14T01:54:37.763Z,72.10
2022-08-14T01:58:00.770Z,72.90
2022-08-14T02:01:06.857Z,73.10
2022-08-14T02:04:40.844Z,72.50
2022-08-14T02:07:55.547Z,72.90
2022-08-14T02:11:22.483Z,72.10
2022-08-14T02:14:31.519Z,73.10
2022-08-14T02:17:36.145Z,72.90
2022-08-14T02:20:46.480Z,73.10
2022-08-14T02:23:54.343Z,73.20
2022-08-14T02:28:25.151Z,73.30
2022-08-14T02:30:27.023Z,73.70
2022-08-14T02:33:39.179Z,73.30
2022-08-14T02:37:06.246Z,73.20
2022-08-14T02:40:08.248Z,73.20
2022-08-14T02:43:14.316Z,73.20
2022-08-14T02:46:20.749Z,73.40
2022-08-14T02:49:33.956Z,73.40
2022-08-14T02:53:07.484Z,73.40
2022-08-14T02:56:10.130Z,73.50
2022-08-14T02:59:33.773Z,73.50
2022-08-14T03:02:56.293Z,73.70
2022-08-14T03:06:01.299Z,73.50
2022-08-14T03:09:05.411Z,73.50
2022-08-14T03:12:09.179Z,73.40
2022-08-14T03:15:16.075Z,74.00
2022-08-14T03:18:22.173Z,73.10
2022-08-14T03:21:37.832Z,73.50
2022-08-14T03:24:44.004Z,73.00
2022-08-14T03:27:58.045Z,73.10
2022-08-14T03:31:04.347Z,73.50
2022-08-14T03:34:24.815Z,73.30
2022-08-14T03:39:08.376Z,73.10
2022-08-14T03:41:00.039Z,73.10
2022-08-14T03:45:26.103Z,73.10
2022-08-14T03:47:46.312Z,73.40
2022-08-14T03:51:01.404Z,74.40
2022-08-14T03:54:08.506Z,72.80
2022-08-14T03:57:14.481Z,73.40
2022-08-14T04:00:44.244Z,73.40
2022-08-14T04:03:43.710Z,74.00
2022-08-14T04:06:48.485Z,73.60
2022-08-14T04:09:53.309Z,73.40
2022-08-14T04:13:00.042Z,73.70
2022-08-14T04:16:13.133Z,73.40
2022-08-14T04:19:19.979Z,73.80
2022-08-14T04:22:23.734Z,73.90
2022-08-14T04:25:27.308Z,74.20
2022-08-14T04:29:02.171Z,73.40
2022-08-14T04:32:58.293Z,73.70
2022-08-14T04:35:23.415Z,74.10
2022-08-14T04:38:47.146Z,73.60
2022-08-14T04:42:13.993Z,73.60
2022-08-14T04:45:17.773Z,73.70
2022-08-14T04:48:39.838Z,73.20
2022-08-14T04:51:55.822Z,73.80
2022-08-14T04:54:59.818Z,74.10
2022-08-14T04:58:06.561Z,74.70
2022-08-14T05:01:19.383Z,75.90
2022-08-14T05:04:25.021Z,76.30
2022-08-14T05:07:46.311Z,76.30
2022-08-14T05:10:52.858Z,75.90
2022-08-14T05:14:16.728Z,74.10
2022-08-14T05:17:34.792Z,74.10
2022-08-14T05:21:58.292Z,72.70
2022-08-14T05:24:17.663Z,71.00
2022-08-14T05:27:23.813Z,70.10
2022-08-14T05:30:28.165Z,69.10
2022-08-14T05:33:34.799Z,67.30
2022-08-14T05:36:39.504Z,65.60
2022-08-14T05:39:44.695Z,64.50
2022-08-14T05:42:52.956Z,63.30
2022-08-14T05:45:56.685Z,62.40
2022-08-14T05:49:02.726Z,61.30
2022-08-14T05:52:09.887Z,59.90
2022-08-14T05:55:15.432Z,58.20
2022-08-14T05:58:21.229Z,56.70
2022-08-14T06:01:37.322Z,56.90
2022-08-14T06:04:48.103Z,56.60
2022-08-14T06:07:52.743Z,55.50
2022-08-14T06:11:03.091Z,54.80
2022-08-14T06:14:20.850Z,53.30
2022-08-14T06:17:25.866Z,52.70
2022-08-14T06:20:31.185Z,51.90
2022-08-14T06:23:34.652Z,51.40
2022-08-14T06:26:39.289Z,50.90
2022-08-14T06:29:44.273Z,50.20
2022-08-14T06:32:52.831Z,50.20
2022-08-14T06:35:56.651Z,49.70
2022-08-14T06:39:00.056Z,49.00
2022-08-14T06:42:05.910Z,48.60
2022-08-14T06:45:11.126Z,48.10
2022-08-14T06:48:17.405Z,47.70
2022-08-14T06:51:21.048Z,48.20
2022-08-14T06:54:31.545Z,47.60
2022-08-14T06:57:43.050Z,47.50
2022-08-14T07:01:02.319Z,46.60
2022-08-14T07:04:24.659Z,47.00
2022-08-14T07:07:37.140Z,47.60
2022-08-14T07:10:44.770Z,46.40
2022-08-14T07:13:54.530Z,46.10
2022-08-14T07:16:58.935Z,46.40
2022-08-14T07:20:07.373Z,45.90
2022-08-14T07:23:20.637Z,45.30
2022-08-14T07:26:25.192Z,44.80
2022-08-14T07:29:34.224Z,43.30
2022-08-14T07:32:37.712Z,44.10
2022-08-14T07:35:57.933Z,44.50
2022-08-14T07:39:13.450Z,45.40
2022-08-14T07:42:17.056Z,44.10
2022-08-14T07:45:28.150Z,44.00
2022-08-14T07:48:41.305Z,44.10
2022-08-14T07:51:45.568Z,44.20
2022-08-14T07:54:54.372Z,44.90
2022-08-14T07:57:58.887Z,44.40
2022-08-14T08:01:08.523Z,44.80
2022-08-14T08:04:18.700Z,44.60
2022-08-14T08:07:30.945Z,45.20
2022-08-14T08:11:01.474Z,44.70
2022-08-14T08:14:02.871Z,45.00
2022-08-14T08:17:07.911Z,44.60
2022-08-14T08:20:19.927Z,45.40
2022-08-14T08:23:34.540Z,45.00
2022-08-14T08:26:44.315Z,45.40
2022-08-14T08:29:50.669Z,45.00
2022-08-14T08:32:58.094Z,45.30
2022-08-14T08:36:05.632Z,45.20
2022-08-14T08:39:18.538Z,45.50
2022-08-14T08:42:31.674Z,45.00
2022-08-14T08:45:42.399Z,45.60
2022-08-14T08:48:53.817Z,46.00
2022-08-14T08:52:04.373Z,44.80
2022-08-14T08:55:10.692Z,44.60
2022-08-14T08:58:20.177Z,45.00
2022-08-14T09:01:30.838Z,45.20
2022-08-14T09:04:45.336Z,45.00
2022-08-14T09:08:21.721Z,44.70
2022-08-14T09:11:33.028Z,44.80
2022-08-14T09:14:41.291Z,44.60
2022-08-14T09:17:46.219Z,44.30
2022-08-14T09:20:54.739Z,44.20
2022-08-14T09:24:28.615Z,44.00
2022-08-14T09:27:26.330Z,44.20
2022-08-14T09:30:32.480Z,44.20
2022-08-14T09:34:27.114Z,43.80
2022-08-14T09:37:56.042Z,43.80
2022-08-14T09:41:12.037Z,43.30
2022-08-14T09:44:42.883Z,43.40
2022-08-14T09:47:54.410Z,43.20
2022-08-14T09:54:19.035Z,43.50
2022-08-14T09:57:30.482Z,43.30
2022-08-14T10:00:46.544Z,42.60
2022-08-14T10:03:55.103Z,42.40
2022-08-14T10:06:58.725Z,42.70
2022-08-14T10:10:23.483Z,42.90
2022-08-14T10:13:28.238Z,43.10
2022-08-14T10:16:51.070Z,42.90
2022-08-14T10:19:58.042Z,42.70
2022-08-14T10:23:16.527Z,42.20
2022-08-14T10:26:28.154Z,42.20
2022-08-14T10:29:37.578Z,42.00
2022-08-14T10:32:52.090Z,41.90
2022-08-14T10:35:57.325Z,41.80
2022-08-14T10:39:07.389Z,41.80
2022-08-14T10:42:20.919Z,41.70
2022-08-14T10:45:35.509Z,41.50
2022-08-14T10:48:58.658Z,41.40
2022-08-14T10:52:07.266Z,41.40
2022-08-14T10:55:15.267Z,40.90
2022-08-14T10:58:34.164Z,41.60
2022-08-14T11:01:41.278Z,40.90
2022-08-14T11:04:48.012Z,41.40
2022-08-14T11:08:01.415Z,41.50
2022-08-14T11:11:07.160Z,41.30
2022-08-14T11:14:13.391Z,41.50
2022-08-14T11:17:18.157Z,41.50
2022-08-14T11:20:27.995Z,41.90
2022-08-14T11:23:37.822Z,41.70
2022-08-14T11:26:45.814Z,42.10
2022-08-14T11:30:00.605Z,42.30
2022-08-14T11:33:17.880Z,42.50
2022-08-14T11:36:35.244Z,42.90
2022-08-14T11:39:51.943Z,43.10
2022-08-14T11:43:08.234Z,43.30
2022-08-14T11:46:17.875Z,43.60
2022-08-14T11:49:35.042Z,43.90
2022-08-14T11:52:40.426Z,44.90
2022-08-14T11:55:44.456Z,43.00
2022-08-14T11:58:54.543Z,44.30
2022-08-14T12:03:00.466Z,44.40
2022-08-14T12:05:39.759Z,45.00
2022-08-14T12:08:44.531Z,44.90
2022-08-14T12:11:51.462Z,44.80
2022-08-14T12:14:57.619Z,45.00
2022-08-14T12:18:03.158Z,45.10
2022-08-14T12:21:19.381Z,45.40
2022-08-14T12:24:36.353Z,45.50
2022-08-14T12:27:52.733Z,45.70
2022-08-14T12:30:58.305Z,45.90
2022-08-14T12:34:10.268Z,46.00
2022-08-14T12:37:14.051Z,46.10
2022-08-14T12:40:20.916Z,46.10
2022-08-14T12:43:24.576Z,46.50
2022-08-14T12:46:31.456Z,46.10
2022-08-14T12:49:36.835Z,46.70
2022-08-14T12:52:56.116Z,47.20
2022-08-14T12:56:22.673Z,46.40
2022-08-14T12:59:37.319Z,46.70
2022-08-14T13:02:54.900Z,46.50
2022-08-14T13:06:00.505Z,46.40
2022-08-14T13:09:11.560Z,46.80
2022-08-14T13:12:35.106Z,46.80
2022-08-14T13:15:41.677Z,47.00
2022-08-14T13:18:48.600Z,47.10
2022-08-14T13:22:09.515Z,47.30
2022-08-14T13:25:17.703Z,47.50
2022-08-14T13:28:32.814Z,47.50
2022-08-14T13:31:41.203Z,47.70
2022-08-14T13:34:52.510Z,48.00
2022-08-14T13:37:57.654Z,47.80
2022-08-14T13:41:01.047Z,47.60
2022-08-14T13:44:05.735Z,47.80
2022-08-14T13:47:19.731Z,47.40
2022-08-14T13:50:23.145Z,48.00
2022-08-14T13:53:35.097Z,47.80
2022-08-14T13:56:42.987Z,47.90
2022-08-14T13:59:51.261Z,48.10
2022-08-14T14:03:01.210Z,48.00
2022-08-14T14:06:05.262Z,48.20
2022-08-14T14:09:16.175Z,48.50
2022-08-14T14:12:37.998Z,48.80
2022-08-14T14:15:57.776Z,48.90
2022-08-14T14:19:09.814Z,48.70
2022-08-14T14:22:35.601Z,48.80
2022-08-14T14:25:51.225Z,48.70
2022-08-14T14:29:02.782Z,49.20
2022-08-14T14:32:06.923Z,49.30
2022-08-14T14:35:16.570Z,50.00
2022-08-14T14:38:30.915Z,49.70
2022-08-14T14:41:44.029Z,50.40
2022-08-14T14:44:53.151Z,50.20
2022-08-14T14:48:00.445Z,50.10
2022-08-14T14:51:04.790Z,49.80
2022-08-14T14:54:09.549Z,50.40
2022-08-14T14:57:19.695Z,50.00
2022-08-14T15:00:23.334Z,50.20
2022-08-14T15:03:26.857Z,50.30
2022-08-14T15:06:33.443Z,49.50
2022-08-14T15:09:37.170Z,50.50
2022-08-14T15:12:56.653Z,50.50
2022-08-14T15:16:01.470Z,50.80
2022-08-14T15:19:05.854Z,51.10
2022-08-14T15:22:10.698Z,51.30
2022-08-14T15:25:14.760Z,51.80
2022-08-14T15:28:23.667Z,52.10
2022-08-14T15:31:27.546Z,52.40
2022-08-14T15:34:51.229Z,52.70
2022-08-14T15:37:56.345Z,53.10
2022-08-14T15:41:02.064Z,53.30
2022-08-14T15:44:25.392Z,53.70
2022-08-14T15:47:33.116Z,53.90
2022-08-14T15:50:37.791Z,54.20
2022-08-14T15:53:41.217Z,54.10
2022-08-14T15:56:59.269Z,54.40
2022-08-14T16:00:40.631Z,54.90
2022-08-14T16:03:48.666Z,55.00
2022-08-14T16:06:55.407Z,54.80
2022-08-14T16:10:25.354Z,54.90
2022-08-14T16:13:41.278Z,54.80
2022-08-14T16:16:51.774Z,55.20
2022-08-14T16:20:07.110Z,54.70
2022-08-14T16:23:12.115Z,54.50
2022-08-14T16:26:22.462Z,55.10
2022-08-14T16:29:37.949Z,54.70
2022-08-14T16:32:54.655Z,54.40
2022-08-14T16:36:01.671Z,54.40
2022-08-14T16:39:08.351Z,54.40
2022-08-14T16:42:38.999Z,54.80
2022-08-14T16:45:43.900Z,54.70
2022-08-14T16:48:57.057Z,54.40
2022-08-14T16:52:10.153Z,54.90
2022-08-14T16:55:30.406Z,54.80
2022-08-14T16:58:34.569Z,54.90
2022-08-14T17:01:40.531Z,54.90
2022-08-14T17:04:45.707Z,56.00
2022-08-14T17:08:42.836Z,55.50
2022-08-14T17:11:37.475Z,55.90
2022-08-14T17:15:01.782Z,55.80
2022-08-14T17:18:05.657Z,56.30
2022-08-14T17:21:31.295Z,55.90
2022-08-14T17:24:55.769Z,56.80
2022-08-14T17:28:50.336Z,56.30
2022-08-14T17:31:58.788Z,57.00
2022-08-14T17:35:10.157Z,56.70
2022-08-14T17:38:38.342Z,56.70
2022-08-14T17:42:03.045Z,56.80
2022-08-14T17:45:07.481Z,57.20
2022-08-14T17:49:14.753Z,57.20
2022-08-14T17:52:07.746Z,57.80
2022-08-14T17:56:03.292Z,57.80
2022-08-14T17:58:42.032Z,57.50
2022-08-14T18:01:46.720Z,58.00
2022-08-14T18:04:53.784Z,58.20
2022-08-14T18:08:00.379Z,59.00
2022-08-14T18:11:23.777Z,58.50
2022-08-14T18:14:32.279Z,58.70
2022-08-14T18:17:39.555Z,58.70
2022-08-14T18:21:40.316Z,58.80
2022-08-14T18:24:28.137Z,58.90
2022-08-14T18:27:41.914Z,58.90
2022-08-14T18:30:58.130Z,59.30
2022-08-14T18:34:11.859Z,59.00
2022-08-14T18:37:21.994Z,59.70
2022-08-14T18:40:34.528Z,59.60
2022-08-14T18:43:45.824Z,58.60
2022-08-14T18:47:23.795Z,59.80
2022-08-14T18:50:31.032Z,60.00
2022-08-14T18:53:57.040Z,59.20
2022-08-14T18:57:02.923Z,59.90
2022-08-14T19:00:51.341Z,59.50
2022-08-14T19:03:59.029Z,59.60
2022-08-14T19:07:17.627Z,58.40
2022-08-14T19:10:37.317Z,60.00
2022-08-14T19:13:48.249Z,60.00
2022-08-14T19:16:56.384Z,58.80
2022-08-14T19:20:07.641Z,58.70
2022-08-14T19:23:21.384Z,58.40
2022-08-14T19:26:34.117Z,57.70
2022-08-14T19:29:41.345Z,57.70
2022-08-14T19:32:50.768Z,57.70
2022-08-14T19:36:00.304Z,57.80
2022-08-14T19:39:04.395Z,57.90
2022-08-14T19:42:10.597Z,57.80
2022-08-14T19:45:16.825Z,57.70
2022-08-14T19:48:24.051Z,57.60
2022-08-14T19:51:32.846Z,57.70
2022-08-14T19:54:39.921Z,57.60
2022-08-14T19:57:43.690Z,58.60
2022-08-14T20:00:59.249Z,57.40
2022-08-14T20:04:07.477Z,57.20
2022-08-14T20:07:27.485Z,57.10
2022-08-14T20:11:04.709Z,57.00
2022-08-14T20:14:20.476Z,56.90
2022-08-14T20:17:28.019Z,56.90
2022-08-14T20:20:33.604Z,56.00
2022-08-14T20:23:38.394Z,56.60
2022-08-14T20:26:46.936Z,56.60
2022-08-14T20:30:33.173Z,56.40
2022-08-14T20:33:47.709Z,56.10
2022-08-14T20:37:04.213Z,56.40
2022-08-14T20:40:23.946Z,56.00
2022-08-14T20:43:48.352Z,56.00
2022-08-14T20:47:01.413Z,56.10
2022-08-14T20:50:18.104Z,56.10
2022-08-14T20:53:36.933Z,56.30
2022-08-14T20:56:44.056Z,56.40
2022-08-14T20:59:53.242Z,56.30
2022-08-14T21:03:30.791Z,56.20
2022-08-14T21:07:23.468Z,56.70
2022-08-14T21:10:34.042Z,56.20
2022-08-14T21:14:20.771Z,56.00
2022-08-14T21:17:00.039Z,56.00
2022-08-14T21:20:25.546Z,55.90
2022-08-14T21:23:32.475Z,55.70
2022-08-14T21:26:52.657Z,55.80
2022-08-14T21:30:00.363Z,55.80
2022-08-14T21:33:04.692Z,55.60
2022-08-14T21:36:21.097Z,55.70
2022-08-14T21:39:26.223Z,55.60
2022-08-14T21:42:29.920Z,55.60
2022-08-14T21:45:35.568Z,55.60
2022-08-14T21:48:39.243Z,55.60
2022-08-14T21:51:58.874Z,55.70
2022-08-14T21:55:10.162Z,55.70
2022-08-14T21:58:52.979Z,55.80
2022-08-14T22:02:00.078Z,55.80
2022-08-14T22:05:04.451Z,55.70
2022-08-14T22:08:14.394Z,55.90
2022-08-14T22:11:21.059Z,55.70
2022-08-14T22:14:25.812Z,55.10
2022-08-14T22:17:32.379Z,56.30
2022-08-14T22:20:37.544Z,55.70
2022-08-14T22:23:42.713Z,56.70
2022-08-14T22:26:47.778Z,56.90
2022-08-14T22:29:54.695Z,57.70
2022-08-14T22:33:00.254Z,57.30
2022-08-14T22:36:26.316Z,57.40
2022-08-14T22:40:51.608Z,57.50
2022-08-14T22:43:00.506Z,57.70
2022-08-14T22:46:14.784Z,57.80
2022-08-14T22:50:30.670Z,58.00
2022-08-14T22:52:49.186Z,58.20
2022-08-14T22:55:54.614Z,58.20
2022-08-14T22:59:01.308Z,59.10
2022-08-14T23:02:12.757Z,58.30
2022-08-14T23:05:16.577Z,58.50
2022-08-14T23:08:59.797Z,58.30
2022-08-14T23:12:06.436Z,58.30
2022-08-14T23:15:30.517Z,58.50
2022-08-14T23:18:34.676Z,58.40
2022-08-14T23:21:38.849Z,58.50
2022-08-14T23:24:50.982Z,58.80
2022-08-14T23:28:03.230Z,58.60
2022-08-14T23:31:10.873Z,58.80
2022-08-14T23:34:20.744Z,58.80
2022-08-14T23:37:27.212Z,59.00
2022-08-14T23:40:32.600Z,59.10
2022-08-14T23:43:40.765Z,59.30
2022-08-14T23:46:44.715Z,59.50
2022-08-14T23:50:01.068Z,59.60
2022-08-14T23:53:28.365Z,59.60
2022-08-14T23:56:42.659Z,60.00
2022-08-14T23:59:54.618Z,60.50
